sensor_id;sensor_type;location;lat;lon;timestamp;P1;durP1;ratioP1;P2;durP2;ratioP2
21890;SDS011;11110;52.386;16.940;2023-02-17T00:01:36;92.67;;;49.00;;
21890;SDS011;11110;52.386;16.940;2023-02-17T00:04:06;83.57;;;49.90;;
21890;SDS011;11110;52.386;16.940;2023-02-17T00:06:34;74.70;;;45.40;;
21890;SDS011;11110;52.386;16.940;2023-02-17T00:09:03;74.83;;;45.73;;
21890;SDS011;11110;52.386;16.940;2023-02-17T00:11:32;62.40;;;41.73;;
21890;SDS011;11110;52.386;16.940;2023-02-17T00:14:00;66.63;;;41.50;;
21890;SDS011;11110;52.386;16.940;2023-02-17T00:16:29;78.17;;;43.63;;
21890;SDS011;11110;52.386;16.940;2023-02-17T00:19:00;64.73;;;36.13;;
21890;SDS011;11110;52.386;16.940;2023-02-17T00:21:52;71.47;;;41.60;;
21890;SDS011;11110;52.386;16.940;2023-02-17T00:24:21;77.77;;;40.00;;
21890;SDS011;11110;52.386;16.940;2023-02-17T00:26:51;79.77;;;42.93;;
21890;SDS011;11110;52.386;16.940;2023-02-17T00:29:20;79.03;;;46.20;;
21890;SDS011;11110;52.386;16.940;2023-02-17T00:31:51;75.87;;;45.67;;
21890;SDS011;11110;52.386;16.940;2023-02-17T00:34:23;78.03;;;48.27;;
21890;SDS011;11110;52.386;16.940;2023-02-17T00:36:54;73.30;;;42.33;;
21890;SDS011;11110;52.386;16.940;2023-02-17T00:39:22;88.43;;;46.07;;
21890;SDS011;11110;52.386;16.940;2023-02-17T00:41:51;77.50;;;44.83;;
21890;SDS011;11110;52.386;16.940;2023-02-17T00:44:20;74.33;;;43.00;;
21890;SDS011;11110;52.386;16.940;2023-02-17T00:46:51;79.37;;;47.70;;
21890;SDS011;11110;52.386;16.940;2023-02-17T00:49:21;73.63;;;45.97;;
21890;SDS011;11110;52.386;16.940;2023-02-17T00:51:52;76.97;;;46.40;;
21890;SDS011;11110;52.386;16.940;2023-02-17T00:54:21;72.90;;;41.53;;
21890;SDS011;11110;52.386;16.940;2023-02-17T00:56:50;73.37;;;42.27;;
21890;SDS011;11110;52.386;16.940;2023-02-17T00:59:19;76.13;;;48.77;;
21890;SDS011;11110;52.386;16.940;2023-02-17T01:01:47;75.97;;;46.07;;
21890;SDS011;11110;52.386;16.940;2023-02-17T01:04:16;76.13;;;44.37;;
21890;SDS011;11110;52.386;16.940;2023-02-17T01:06:46;83.67;;;46.00;;
21890;SDS011;11110;52.386;16.940;2023-02-17T01:09:15;82.57;;;42.40;;
21890;SDS011;11110;52.386;16.940;2023-02-17T01:11:44;76.67;;;45.47;;
21890;SDS011;11110;52.386;16.940;2023-02-17T01:14:13;77.87;;;45.17;;
21890;SDS011;11110;52.386;16.940;2023-02-17T01:16:43;84.93;;;43.87;;
21890;SDS011;11110;52.386;16.940;2023-02-17T01:19:14;90.00;;;43.87;;
21890;SDS011;11110;52.386;16.940;2023-02-17T01:21:48;80.10;;;43.73;;
21890;SDS011;11110;52.386;16.940;2023-02-17T01:24:17;141.03;;;129.50;;
21890;SDS011;11110;52.386;16.940;2023-02-17T01:26:45;60.83;;;42.80;;
21890;SDS011;11110;52.386;16.940;2023-02-17T01:29:14;68.80;;;54.57;;
21890;SDS011;11110;52.386;16.940;2023-02-17T01:31:43;60.70;;;46.40;;
21890;SDS011;11110;52.386;16.940;2023-02-17T01:34:12;76.70;;;47.90;;
21890;SDS011;11110;52.386;16.940;2023-02-17T01:36:41;70.00;;;33.80;;
21890;SDS011;11110;52.386;16.940;2023-02-17T01:39:11;68.47;;;36.13;;
21890;SDS011;11110;52.386;16.940;2023-02-17T01:41:41;73.63;;;35.07;;
21890;SDS011;11110;52.386;16.940;2023-02-17T01:44:12;62.40;;;32.87;;
21890;SDS011;11110;52.386;16.940;2023-02-17T01:46:43;64.83;;;32.53;;
21890;SDS011;11110;52.386;16.940;2023-02-17T01:49:15;61.87;;;32.97;;
21890;SDS011;11110;52.386;16.940;2023-02-17T01:51:58;72.07;;;34.83;;
21890;SDS011;11110;52.386;16.940;2023-02-17T01:54:35;72.60;;;32.93;;
21890;SDS011;11110;52.386;16.940;2023-02-17T01:57:08;60.23;;;30.20;;
21890;SDS011;11110;52.386;16.940;2023-02-17T01:59:39;57.97;;;29.73;;
21890;SDS011;11110;52.386;16.940;2023-02-17T02:02:10;65.33;;;37.33;;
21890;SDS011;11110;52.386;16.940;2023-02-17T02:04:41;57.57;;;31.37;;
21890;SDS011;11110;52.386;16.940;2023-02-17T02:07:13;63.30;;;36.80;;
21890;SDS011;11110;52.386;16.940;2023-02-17T02:09:48;69.20;;;34.80;;
21890;SDS011;11110;52.386;16.940;2023-02-17T02:12:21;61.77;;;33.60;;
21890;SDS011;11110;52.386;16.940;2023-02-17T02:14:51;64.70;;;32.33;;
21890;SDS011;11110;52.386;16.940;2023-02-17T02:17:26;72.37;;;37.97;;
21890;SDS011;11110;52.386;16.940;2023-02-17T02:23:22;66.73;;;37.37;;
21890;SDS011;11110;52.386;16.940;2023-02-17T02:29:29;64.30;;;35.83;;
21890;SDS011;11110;52.386;16.940;2023-02-17T02:32:34;67.17;;;37.77;;
21890;SDS011;11110;52.386;16.940;2023-02-17T02:35:12;74.93;;;40.90;;
21890;SDS011;11110;52.386;16.940;2023-02-17T02:37:46;66.43;;;37.60;;
21890;SDS011;11110;52.386;16.940;2023-02-17T02:40:21;63.37;;;36.27;;
21890;SDS011;11110;52.386;16.940;2023-02-17T02:42:53;62.67;;;33.63;;
21890;SDS011;11110;52.386;16.940;2023-02-17T02:45:24;77.07;;;35.47;;
21890;SDS011;11110;52.386;16.940;2023-02-17T02:47:55;66.47;;;33.10;;
21890;SDS011;11110;52.386;16.940;2023-02-17T02:50:29;63.13;;;31.60;;
21890;SDS011;11110;52.386;16.940;2023-02-17T02:53:27;52.40;;;26.63;;
21890;SDS011;11110;52.386;16.940;2023-02-17T02:56:11;61.43;;;28.70;;
21890;SDS011;11110;52.386;16.940;2023-02-17T02:58:46;66.33;;;29.10;;
21890;SDS011;11110;52.386;16.940;2023-02-17T03:01:24;58.23;;;27.27;;
21890;SDS011;11110;52.386;16.940;2023-02-17T03:04:06;61.73;;;28.23;;
21890;SDS011;11110;52.386;16.940;2023-02-17T03:06:40;63.33;;;27.43;;
21890;SDS011;11110;52.386;16.940;2023-02-17T03:09:16;58.10;;;27.43;;
21890;SDS011;11110;52.386;16.940;2023-02-17T03:11:48;54.77;;;26.40;;
21890;SDS011;11110;52.386;16.940;2023-02-17T03:14:18;55.47;;;26.90;;
21890;SDS011;11110;52.386;16.940;2023-02-17T03:16:48;62.03;;;28.43;;
21890;SDS011;11110;52.386;16.940;2023-02-17T03:19:20;55.73;;;27.20;;
21890;SDS011;11110;52.386;16.940;2023-02-17T03:21:52;57.87;;;26.27;;
21890;SDS011;11110;52.386;16.940;2023-02-17T03:24:24;65.87;;;28.47;;
21890;SDS011;11110;52.386;16.940;2023-02-17T03:26:53;63.47;;;25.67;;
21890;SDS011;11110;52.386;16.940;2023-02-17T03:29:21;59.80;;;26.93;;
21890;SDS011;11110;52.386;16.940;2023-02-17T03:31:50;57.20;;;26.40;;
21890;SDS011;11110;52.386;16.940;2023-02-17T03:34:22;58.97;;;29.03;;
21890;SDS011;11110;52.386;16.940;2023-02-17T03:36:50;55.20;;;27.43;;
21890;SDS011;11110;52.386;16.940;2023-02-17T03:39:19;54.87;;;23.73;;
21890;SDS011;11110;52.386;16.940;2023-02-17T03:41:48;65.00;;;23.13;;
21890;SDS011;11110;52.386;16.940;2023-02-17T03:44:17;57.90;;;23.83;;
21890;SDS011;11110;52.386;16.940;2023-02-17T03:46:46;54.80;;;22.37;;
21890;SDS011;11110;52.386;16.940;2023-02-17T03:49:15;62.10;;;25.07;;
21890;SDS011;11110;52.386;16.940;2023-02-17T03:51:45;62.40;;;23.07;;
21890;SDS011;11110;52.386;16.940;2023-02-17T03:54:14;56.83;;;22.83;;
21890;SDS011;11110;52.386;16.940;2023-02-17T03:56:42;65.93;;;25.97;;
21890;SDS011;11110;52.386;16.940;2023-02-17T03:59:11;58.70;;;22.80;;
21890;SDS011;11110;52.386;16.940;2023-02-17T04:01:40;61.43;;;23.20;;
21890;SDS011;11110;52.386;16.940;2023-02-17T04:04:08;63.80;;;22.33;;
21890;SDS011;11110;52.386;16.940;2023-02-17T04:06:37;58.53;;;23.23;;
21890;SDS011;11110;52.386;16.940;2023-02-17T04:09:07;59.73;;;24.73;;
21890;SDS011;11110;52.386;16.940;2023-02-17T04:11:36;59.33;;;22.90;;
21890;SDS011;11110;52.386;16.940;2023-02-17T04:14:05;59.17;;;23.97;;
21890;SDS011;11110;52.386;16.940;2023-02-17T04:16:33;58.77;;;23.83;;
21890;SDS011;11110;52.386;16.940;2023-02-17T04:19:04;48.97;;;22.80;;
21890;SDS011;11110;52.386;16.940;2023-02-17T04:21:33;58.77;;;24.70;;
21890;SDS011;11110;52.386;16.940;2023-02-17T04:24:02;58.20;;;26.23;;
21890;SDS011;11110;52.386;16.940;2023-02-17T04:26:33;57.33;;;23.27;;
21890;SDS011;11110;52.386;16.940;2023-02-17T04:29:02;54.27;;;25.07;;
21890;SDS011;11110;52.386;16.940;2023-02-17T04:31:32;51.17;;;26.57;;
21890;SDS011;11110;52.386;16.940;2023-02-17T04:34:00;50.13;;;26.73;;
21890;SDS011;11110;52.386;16.940;2023-02-17T04:36:29;50.17;;;26.20;;
21890;SDS011;11110;52.386;16.940;2023-02-17T04:38:58;62.30;;;27.53;;
21890;SDS011;11110;52.386;16.940;2023-02-17T04:41:27;57.63;;;25.07;;
21890;SDS011;11110;52.386;16.940;2023-02-17T04:43:57;49.00;;;25.00;;
21890;SDS011;11110;52.386;16.940;2023-02-17T04:46:25;59.47;;;23.80;;
21890;SDS011;11110;52.386;16.940;2023-02-17T04:48:54;59.87;;;25.70;;
21890;SDS011;11110;52.386;16.940;2023-02-17T04:51:23;58.50;;;24.47;;
21890;SDS011;11110;52.386;16.940;2023-02-17T04:53:51;59.67;;;26.67;;
21890;SDS011;11110;52.386;16.940;2023-02-17T04:56:20;61.40;;;28.20;;
21890;SDS011;11110;52.386;16.940;2023-02-17T04:58:48;67.37;;;29.20;;
21890;SDS011;11110;52.386;16.940;2023-02-17T05:01:19;66.47;;;30.30;;
21890;SDS011;11110;52.386;16.940;2023-02-17T05:03:47;65.27;;;28.97;;
21890;SDS011;11110;52.386;16.940;2023-02-17T05:06:16;64.83;;;28.70;;
21890;SDS011;11110;52.386;16.940;2023-02-17T05:08:45;64.63;;;29.80;;
21890;SDS011;11110;52.386;16.940;2023-02-17T05:11:14;67.63;;;30.57;;
21890;SDS011;11110;52.386;16.940;2023-02-17T05:13:43;57.40;;;28.77;;
21890;SDS011;11110;52.386;16.940;2023-02-17T05:16:11;63.43;;;32.83;;
21890;SDS011;11110;52.386;16.940;2023-02-17T05:18:41;58.93;;;31.13;;
21890;SDS011;11110;52.386;16.940;2023-02-17T05:21:10;58.40;;;30.27;;
21890;SDS011;11110;52.386;16.940;2023-02-17T05:23:39;65.10;;;33.83;;
21890;SDS011;11110;52.386;16.940;2023-02-17T05:26:08;62.43;;;34.07;;
21890;SDS011;11110;52.386;16.940;2023-02-17T05:28:36;68.20;;;33.87;;
21890;SDS011;11110;52.386;16.940;2023-02-17T05:31:05;50.57;;;32.17;;
21890;SDS011;11110;52.386;16.940;2023-02-17T05:33:34;65.23;;;32.80;;
21890;SDS011;11110;52.386;16.940;2023-02-17T05:36:04;62.23;;;31.37;;
21890;SDS011;11110;52.386;16.940;2023-02-17T05:38:35;58.10;;;32.77;;
21890;SDS011;11110;52.386;16.940;2023-02-17T05:41:04;73.17;;;34.57;;
21890;SDS011;11110;52.386;16.940;2023-02-17T05:43:33;62.57;;;34.60;;
21890;SDS011;11110;52.386;16.940;2023-02-17T05:46:02;77.67;;;38.73;;
21890;SDS011;11110;52.386;16.940;2023-02-17T05:48:32;75.23;;;39.47;;
21890;SDS011;11110;52.386;16.940;2023-02-17T05:51:01;70.03;;;38.00;;
21890;SDS011;11110;52.386;16.940;2023-02-17T05:53:31;65.70;;;37.57;;
21890;SDS011;11110;52.386;16.940;2023-02-17T05:56:00;60.57;;;35.77;;
21890;SDS011;11110;52.386;16.940;2023-02-17T05:58:29;60.70;;;38.63;;
21890;SDS011;11110;52.386;16.940;2023-02-17T06:00:57;58.57;;;34.87;;
21890;SDS011;11110;52.386;16.940;2023-02-17T06:03:26;62.20;;;35.53;;
21890;SDS011;11110;52.386;16.940;2023-02-17T06:05:55;59.97;;;35.53;;
21890;SDS011;11110;52.386;16.940;2023-02-17T06:08:24;61.37;;;38.37;;
21890;SDS011;11110;52.386;16.940;2023-02-17T06:10:54;56.47;;;37.60;;
21890;SDS011;11110;52.386;16.940;2023-02-17T06:13:23;53.67;;;36.37;;
21890;SDS011;11110;52.386;16.940;2023-02-17T06:15:52;57.47;;;38.37;;
21890;SDS011;11110;52.386;16.940;2023-02-17T06:18:20;65.47;;;40.10;;
21890;SDS011;11110;52.386;16.940;2023-02-17T06:20:49;67.30;;;39.13;;
21890;SDS011;11110;52.386;16.940;2023-02-17T06:23:18;64.93;;;40.20;;
21890;SDS011;11110;52.386;16.940;2023-02-17T06:25:46;64.90;;;39.03;;
21890;SDS011;11110;52.386;16.940;2023-02-17T06:28:16;61.37;;;37.90;;
21890;SDS011;11110;52.386;16.940;2023-02-17T06:30:45;63.10;;;38.03;;
21890;SDS011;11110;52.386;16.940;2023-02-17T06:33:14;60.93;;;37.57;;
21890;SDS011;11110;52.386;16.940;2023-02-17T06:35:46;72.50;;;39.60;;
21890;SDS011;11110;52.386;16.940;2023-02-17T06:38:15;70.03;;;38.30;;
21890;SDS011;11110;52.386;16.940;2023-02-17T06:40:45;65.70;;;38.17;;
21890;SDS011;11110;52.386;16.940;2023-02-17T06:43:13;67.63;;;43.57;;
21890;SDS011;11110;52.386;16.940;2023-02-17T06:45:43;63.77;;;37.10;;
21890;SDS011;11110;52.386;16.940;2023-02-17T06:48:12;66.10;;;37.03;;
21890;SDS011;11110;52.386;16.940;2023-02-17T06:50:41;60.33;;;37.47;;
21890;SDS011;11110;52.386;16.940;2023-02-17T06:53:09;78.30;;;41.23;;
21890;SDS011;11110;52.386;16.940;2023-02-17T06:55:38;76.07;;;40.53;;
21890;SDS011;11110;52.386;16.940;2023-02-17T06:58:07;69.63;;;36.03;;
21890;SDS011;11110;52.386;16.940;2023-02-17T07:00:36;67.17;;;34.50;;
21890;SDS011;11110;52.386;16.940;2023-02-17T07:03:05;61.27;;;33.73;;
21890;SDS011;11110;52.386;16.940;2023-02-17T07:05:35;61.73;;;34.07;;
21890;SDS011;11110;52.386;16.940;2023-02-17T07:08:05;70.33;;;35.47;;
21890;SDS011;11110;52.386;16.940;2023-02-17T07:10:35;71.73;;;33.67;;
21890;SDS011;11110;52.386;16.940;2023-02-17T07:13:04;64.97;;;33.33;;
21890;SDS011;11110;52.386;16.940;2023-02-17T07:15:33;62.73;;;31.07;;
21890;SDS011;11110;52.386;16.940;2023-02-17T07:18:02;65.90;;;33.60;;
21890;SDS011;11110;52.386;16.940;2023-02-17T07:20:32;68.43;;;33.03;;
21890;SDS011;11110;52.386;16.940;2023-02-17T07:23:04;64.00;;;30.97;;
21890;SDS011;11110;52.386;16.940;2023-02-17T07:25:33;68.10;;;29.17;;
21890;SDS011;11110;52.386;16.940;2023-02-17T07:28:02;67.23;;;30.47;;
21890;SDS011;11110;52.386;16.940;2023-02-17T07:30:31;60.33;;;28.27;;
21890;SDS011;11110;52.386;16.940;2023-02-17T07:33:03;64.70;;;32.60;;
21890;SDS011;11110;52.386;16.940;2023-02-17T07:35:34;55.87;;;27.93;;
21890;SDS011;11110;52.386;16.940;2023-02-17T07:38:07;63.70;;;31.70;;
21890;SDS011;11110;52.386;16.940;2023-02-17T07:40:36;67.07;;;28.57;;
21890;SDS011;11110;52.386;16.940;2023-02-17T07:43:05;61.73;;;28.93;;
21890;SDS011;11110;52.386;16.940;2023-02-17T07:45:34;59.17;;;27.67;;
21890;SDS011;11110;52.386;16.940;2023-02-17T07:48:03;73.33;;;33.43;;
21890;SDS011;11110;52.386;16.940;2023-02-17T07:50:33;60.13;;;27.40;;
21890;SDS011;11110;52.386;16.940;2023-02-17T07:53:02;63.50;;;25.97;;
21890;SDS011;11110;52.386;16.940;2023-02-17T07:55:30;77.60;;;31.57;;
21890;SDS011;11110;52.386;16.940;2023-02-17T07:57:59;63.13;;;28.70;;
21890;SDS011;11110;52.386;16.940;2023-02-17T08:00:28;64.43;;;33.07;;
21890;SDS011;11110;52.386;16.940;2023-02-17T08:02:56;63.20;;;32.33;;
21890;SDS011;11110;52.386;16.940;2023-02-17T08:05:26;58.67;;;29.53;;
21890;SDS011;11110;52.386;16.940;2023-02-17T08:07:56;65.73;;;32.93;;
21890;SDS011;11110;52.386;16.940;2023-02-17T08:10:39;51.97;;;25.43;;
21890;SDS011;11110;52.386;16.940;2023-02-17T08:13:25;66.13;;;27.53;;
21890;SDS011;11110;52.386;16.940;2023-02-17T08:15:54;70.90;;;27.47;;
21890;SDS011;11110;52.386;16.940;2023-02-17T08:18:23;59.20;;;24.70;;
21890;SDS011;11110;52.386;16.940;2023-02-17T08:20:53;58.50;;;22.87;;
21890;SDS011;11110;52.386;16.940;2023-02-17T08:23:24;56.93;;;26.17;;
21890;SDS011;11110;52.386;16.940;2023-02-17T08:25:55;68.43;;;26.77;;
21890;SDS011;11110;52.386;16.940;2023-02-17T08:28:24;55.17;;;22.57;;
21890;SDS011;11110;52.386;16.940;2023-02-17T08:30:53;53.53;;;22.93;;
21890;SDS011;11110;52.386;16.940;2023-02-17T08:33:21;77.43;;;39.07;;
21890;SDS011;11110;52.386;16.940;2023-02-17T08:35:50;65.93;;;34.17;;
21890;SDS011;11110;52.386;16.940;2023-02-17T08:38:19;56.80;;;28.20;;
21890;SDS011;11110;52.386;16.940;2023-02-17T08:40:49;66.23;;;24.90;;
21890;SDS011;11110;52.386;16.940;2023-02-17T08:43:18;54.70;;;23.97;;
21890;SDS011;11110;52.386;16.940;2023-02-17T08:45:49;59.53;;;24.10;;
21890;SDS011;11110;52.386;16.940;2023-02-17T08:48:18;66.57;;;27.47;;
21890;SDS011;11110;52.386;16.940;2023-02-17T08:50:47;57.20;;;24.10;;
21890;SDS011;11110;52.386;16.940;2023-02-17T08:53:15;65.50;;;25.33;;
21890;SDS011;11110;52.386;16.940;2023-02-17T08:55:44;63.33;;;22.73;;
21890;SDS011;11110;52.386;16.940;2023-02-17T08:58:16;59.63;;;25.33;;
21890;SDS011;11110;52.386;16.940;2023-02-17T09:00:46;59.07;;;24.77;;
21890;SDS011;11110;52.386;16.940;2023-02-17T09:03:14;67.77;;;29.43;;
21890;SDS011;11110;52.386;16.940;2023-02-17T09:05:44;65.47;;;30.93;;
21890;SDS011;11110;52.386;16.940;2023-02-17T09:08:12;69.17;;;27.47;;
21890;SDS011;11110;52.386;16.940;2023-02-17T09:10:41;65.23;;;27.90;;
21890;SDS011;11110;52.386;16.940;2023-02-17T09:13:10;69.30;;;28.27;;
21890;SDS011;11110;52.386;16.940;2023-02-17T09:15:40;56.70;;;24.17;;
21890;SDS011;11110;52.386;16.940;2023-02-17T09:18:08;64.40;;;25.10;;
21890;SDS011;11110;52.386;16.940;2023-02-17T09:20:37;71.27;;;33.27;;
21890;SDS011;11110;52.386;16.940;2023-02-17T09:23:06;56.00;;;24.70;;
21890;SDS011;11110;52.386;16.940;2023-02-17T09:25:35;53.23;;;21.60;;
21890;SDS011;11110;52.386;16.940;2023-02-17T09:28:04;58.03;;;21.97;;
21890;SDS011;11110;52.386;16.940;2023-02-17T09:30:33;53.67;;;23.00;;
21890;SDS011;11110;52.386;16.940;2023-02-17T09:33:04;54.00;;;24.23;;
21890;SDS011;11110;52.386;16.940;2023-02-17T09:35:33;53.87;;;20.67;;
21890;SDS011;11110;52.386;16.940;2023-02-17T09:38:03;58.90;;;20.63;;
21890;SDS011;11110;52.386;16.940;2023-02-17T09:40:35;44.70;;;19.70;;
21890;SDS011;11110;52.386;16.940;2023-02-17T09:43:07;55.73;;;20.50;;
21890;SDS011;11110;52.386;16.940;2023-02-17T09:45:43;50.77;;;20.17;;
21890;SDS011;11110;52.386;16.940;2023-02-17T09:48:18;59.10;;;21.73;;
21890;SDS011;11110;52.386;16.940;2023-02-17T09:50:52;51.07;;;19.70;;
21890;SDS011;11110;52.386;16.940;2023-02-17T09:53:23;66.40;;;21.63;;
21890;SDS011;11110;52.386;16.940;2023-02-17T09:55:58;41.63;;;18.23;;
21890;SDS011;11110;52.386;16.940;2023-02-17T09:58:32;63.77;;;25.33;;
21890;SDS011;11110;52.386;16.940;2023-02-17T10:01:06;63.90;;;25.97;;
21890;SDS011;11110;52.386;16.940;2023-02-17T10:03:40;52.97;;;19.23;;
21890;SDS011;11110;52.386;16.940;2023-02-17T10:06:13;46.67;;;17.87;;
21890;SDS011;11110;52.386;16.940;2023-02-17T10:08:46;60.37;;;25.70;;
21890;SDS011;11110;52.386;16.940;2023-02-17T10:11:22;53.53;;;17.23;;
21890;SDS011;11110;52.386;16.940;2023-02-17T10:13:57;48.47;;;17.67;;
21890;SDS011;11110;52.386;16.940;2023-02-17T10:16:30;60.00;;;24.17;;
21890;SDS011;11110;52.386;16.940;2023-02-17T10:19:07;55.53;;;18.23;;
21890;SDS011;11110;52.386;16.940;2023-02-17T10:21:41;48.30;;;18.83;;
21890;SDS011;11110;52.386;16.940;2023-02-17T10:24:14;46.97;;;15.77;;
21890;SDS011;11110;52.386;16.940;2023-02-17T10:26:47;52.50;;;18.70;;
21890;SDS011;11110;52.386;16.940;2023-02-17T10:29:30;53.00;;;20.07;;
21890;SDS011;11110;52.386;16.940;2023-02-17T10:32:14;54.10;;;19.70;;
21890;SDS011;11110;52.386;16.940;2023-02-17T10:37:44;55.43;;;21.27;;
21890;SDS011;11110;52.386;16.940;2023-02-17T10:40:17;44.07;;;19.87;;
21890;SDS011;11110;52.386;16.940;2023-02-17T10:42:48;53.00;;;16.90;;
21890;SDS011;11110;52.386;16.940;2023-02-17T10:45:22;47.70;;;15.57;;
21890;SDS011;11110;52.386;16.940;2023-02-17T10:47:57;57.03;;;18.53;;
21890;SDS011;11110;52.386;16.940;2023-02-17T10:50:31;53.20;;;18.53;;
21890;SDS011;11110;52.386;16.940;2023-02-17T10:53:00;43.93;;;16.33;;
21890;SDS011;11110;52.386;16.940;2023-02-17T10:55:30;56.57;;;17.93;;
21890;SDS011;11110;52.386;16.940;2023-02-17T10:58:04;48.40;;;17.67;;
21890;SDS011;11110;52.386;16.940;2023-02-17T11:00:40;52.63;;;16.87;;
21890;SDS011;11110;52.386;16.940;2023-02-17T11:03:17;48.33;;;15.40;;
21890;SDS011;11110;52.386;16.940;2023-02-17T11:05:52;51.63;;;16.37;;
21890;SDS011;11110;52.386;16.940;2023-02-17T11:08:26;49.37;;;16.03;;
21890;SDS011;11110;52.386;16.940;2023-02-17T11:10:58;44.93;;;16.60;;
21890;SDS011;11110;52.386;16.940;2023-02-17T11:13:34;57.43;;;16.90;;
21890;SDS011;11110;52.386;16.940;2023-02-17T11:16:04;40.80;;;15.97;;
21890;SDS011;11110;52.386;16.940;2023-02-17T11:18:35;51.33;;;16.57;;
21890;SDS011;11110;52.386;16.940;2023-02-17T11:21:13;41.43;;;15.13;;
21890;SDS011;11110;52.386;16.940;2023-02-17T11:23:47;44.57;;;16.67;;
21890;SDS011;11110;52.386;16.940;2023-02-17T11:26:21;52.37;;;17.57;;
21890;SDS011;11110;52.386;16.940;2023-02-17T11:28:52;45.60;;;15.57;;
21890;SDS011;11110;52.386;16.940;2023-02-17T11:31:22;44.83;;;14.57;;
21890;SDS011;11110;52.386;16.940;2023-02-17T11:33:52;52.23;;;16.20;;
21890;SDS011;11110;52.386;16.940;2023-02-17T11:36:25;40.97;;;14.20;;
21890;SDS011;11110;52.386;16.940;2023-02-17T11:38:56;55.93;;;17.43;;
21890;SDS011;11110;52.386;16.940;2023-02-17T11:41:26;54.13;;;16.80;;
21890;SDS011;11110;52.386;16.940;2023-02-17T11:44:07;39.73;;;14.07;;
21890;SDS011;11110;52.386;16.940;2023-02-17T11:46:37;53.20;;;16.07;;
21890;SDS011;11110;52.386;16.940;2023-02-17T11:49:28;48.93;;;16.20;;
21890;SDS011;11110;52.386;16.940;2023-02-17T11:52:20;44.43;;;14.33;;
21890;SDS011;11110;52.386;16.940;2023-02-17T11:55:14;48.10;;;16.00;;
21890;SDS011;11110;52.386;16.940;2023-02-17T11:57:54;52.10;;;15.73;;
21890;SDS011;11110;52.386;16.940;2023-02-17T12:00:35;49.70;;;16.03;;
21890;SDS011;11110;52.386;16.940;2023-02-17T12:03:20;56.00;;;16.83;;
21890;SDS011;11110;52.386;16.940;2023-02-17T12:06:10;47.47;;;14.97;;
21890;SDS011;11110;52.386;16.940;2023-02-17T12:08:55;52.87;;;15.90;;
21890;SDS011;11110;52.386;16.940;2023-02-17T12:11:39;45.03;;;16.90;;
21890;SDS011;11110;52.386;16.940;2023-02-17T12:14:25;43.57;;;14.97;;
21890;SDS011;11110;52.386;16.940;2023-02-17T12:17:11;37.80;;;13.50;;
21890;SDS011;11110;52.386;16.940;2023-02-17T12:19:48;48.93;;;15.50;;
21890;SDS011;11110;52.386;16.940;2023-02-17T12:22:25;35.47;;;12.33;;
21890;SDS011;11110;52.386;16.940;2023-02-17T12:25:07;51.40;;;15.20;;
21890;SDS011;11110;52.386;16.940;2023-02-17T12:30:47;49.53;;;15.03;;
21890;SDS011;11110;52.386;16.940;2023-02-17T12:33:31;44.77;;;13.60;;
21890;SDS011;11110;52.386;16.940;2023-02-17T12:36:10;43.43;;;14.33;;
21890;SDS011;11110;52.386;16.940;2023-02-17T12:38:42;43.00;;;14.40;;
21890;SDS011;11110;52.386;16.940;2023-02-17T12:41:15;54.97;;;15.53;;
21890;SDS011;11110;52.386;16.940;2023-02-17T12:43:48;42.97;;;15.03;;
21890;SDS011;11110;52.386;16.940;2023-02-17T12:46:23;34.17;;;12.63;;
21890;SDS011;11110;52.386;16.940;2023-02-17T12:48:54;47.20;;;15.20;;
21890;SDS011;11110;52.386;16.940;2023-02-17T12:51:27;47.13;;;15.93;;
21890;SDS011;11110;52.386;16.940;2023-02-17T12:54:02;45.67;;;15.33;;
21890;SDS011;11110;52.386;16.940;2023-02-17T12:56:50;57.10;;;18.13;;
21890;SDS011;11110;52.386;16.940;2023-02-17T12:59:30;45.67;;;15.27;;
21890;SDS011;11110;52.386;16.940;2023-02-17T13:02:01;49.67;;;15.17;;
21890;SDS011;11110;52.386;16.940;2023-02-17T13:04:33;46.10;;;14.63;;
21890;SDS011;11110;52.386;16.940;2023-02-17T13:07:05;44.00;;;13.40;;
21890;SDS011;11110;52.386;16.940;2023-02-17T13:09:48;49.93;;;15.47;;
21890;SDS011;11110;52.386;16.940;2023-02-17T13:12:30;38.33;;;12.07;;
21890;SDS011;11110;52.386;16.940;2023-02-17T13:15:03;47.63;;;14.53;;
21890;SDS011;11110;52.386;16.940;2023-02-17T13:17:36;48.00;;;15.17;;
21890;SDS011;11110;52.386;16.940;2023-02-17T13:20:26;36.33;;;13.97;;
21890;SDS011;11110;52.386;16.940;2023-02-17T13:23:09;52.23;;;15.53;;
21890;SDS011;11110;52.386;16.940;2023-02-17T13:25:40;56.63;;;16.47;;
21890;SDS011;11110;52.386;16.940;2023-02-17T13:28:32;53.50;;;14.40;;
21890;SDS011;11110;52.386;16.940;2023-02-17T13:31:07;41.07;;;13.70;;
21890;SDS011;11110;52.386;16.940;2023-02-17T13:33:40;41.83;;;13.57;;
21890;SDS011;11110;52.386;16.940;2023-02-17T13:36:12;43.13;;;14.40;;
21890;SDS011;11110;52.386;16.940;2023-02-17T13:38:51;55.37;;;15.23;;
21890;SDS011;11110;52.386;16.940;2023-02-17T13:41:23;43.17;;;13.40;;
21890;SDS011;11110;52.386;16.940;2023-02-17T13:43:53;46.17;;;13.63;;
21890;SDS011;11110;52.386;16.940;2023-02-17T13:46:22;50.00;;;13.93;;
21890;SDS011;11110;52.386;16.940;2023-02-17T13:48:57;42.07;;;12.53;;
21890;SDS011;11110;52.386;16.940;2023-02-17T13:51:31;35.47;;;11.90;;
21890;SDS011;11110;52.386;16.940;2023-02-17T13:54:04;44.50;;;13.53;;
21890;SDS011;11110;52.386;16.940;2023-02-17T13:56:35;44.17;;;12.93;;
21890;SDS011;11110;52.386;16.940;2023-02-17T13:59:09;34.00;;;11.23;;
21890;SDS011;11110;52.386;16.940;2023-02-17T14:01:44;36.93;;;12.03;;
21890;SDS011;11110;52.386;16.940;2023-02-17T14:04:18;42.80;;;13.27;;
21890;SDS011;11110;52.386;16.940;2023-02-17T14:06:49;49.63;;;13.57;;
21890;SDS011;11110;52.386;16.940;2023-02-17T14:09:22;47.80;;;13.50;;
21890;SDS011;11110;52.386;16.940;2023-02-17T14:11:53;45.07;;;13.20;;
21890;SDS011;11110;52.386;16.940;2023-02-17T14:14:27;38.33;;;12.30;;
21890;SDS011;11110;52.386;16.940;2023-02-17T14:16:59;47.87;;;12.93;;
21890;SDS011;11110;52.386;16.940;2023-02-17T14:19:40;54.70;;;14.27;;
21890;SDS011;11110;52.386;16.940;2023-02-17T14:22:22;33.87;;;10.83;;
21890;SDS011;11110;52.386;16.940;2023-02-17T14:24:58;44.43;;;13.37;;
21890;SDS011;11110;52.386;16.940;2023-02-17T14:27:28;34.87;;;10.50;;
21890;SDS011;11110;52.386;16.940;2023-02-17T14:30:13;45.63;;;13.03;;
21890;SDS011;11110;52.386;16.940;2023-02-17T14:32:42;40.30;;;13.37;;
21890;SDS011;11110;52.386;16.940;2023-02-17T14:35:21;39.30;;;12.63;;
21890;SDS011;11110;52.386;16.940;2023-02-17T14:37:51;43.57;;;12.77;;
21890;SDS011;11110;52.386;16.940;2023-02-17T14:40:21;42.47;;;11.83;;
21890;SDS011;11110;52.386;16.940;2023-02-17T14:42:51;44.03;;;12.13;;
21890;SDS011;11110;52.386;16.940;2023-02-17T14:45:21;40.67;;;12.07;;
21890;SDS011;11110;52.386;16.940;2023-02-17T14:47:50;45.83;;;13.50;;
21890;SDS011;11110;52.386;16.940;2023-02-17T14:50:18;43.90;;;18.10;;